createdAt,value
2018-03-06T00:00:55.967Z,7.96
2018-03-06T00:01:55.976Z,8.10
2018-03-06T00:02:55.990Z,7.94
2018-03-06T00:03:56.011Z,8.04
2018-03-06T00:04:56.030Z,8.15
2018-03-06T00:05:56.047Z,8.08
2018-03-06T00:06:56.067Z,8.04
2018-03-06T00:07:56.086Z,7.97
2018-03-06T00:08:56.103Z,8.04
2018-03-06T00:09:56.120Z,8.48
2018-03-06T00:10:56.162Z,7.87
2018-03-06T00:11:56.187Z,7.81
2018-03-06T00:12:56.212Z,7.87
2018-03-06T00:13:56.186Z,7.87
2018-03-06T00:14:56.207Z,7.81
2018-03-06T00:15:56.226Z,7.89
2018-03-06T00:16:56.240Z,7.92
2018-03-06T00:17:56.260Z,7.99
2018-03-06T00:18:56.274Z,7.96
2018-03-06T00:19:56.297Z,7.97
2018-03-06T00:20:56.321Z,8.08
2018-03-06T00:21:56.328Z,8.03
2018-03-06T00:22:56.343Z,8.07
2018-03-06T00:23:56.369Z,8.07
2018-03-06T00:24:56.413Z,7.92
2018-03-06T00:25:56.419Z,7.94
2018-03-06T00:26:56.424Z,7.87
2018-03-06T00:27:56.434Z,7.87
2018-03-06T00:28:56.450Z,7.96
2018-03-06T00:29:56.490Z,7.81
2018-03-06T00:30:56.489Z,8.20
2018-03-06T00:31:56.524Z,8.26
2018-03-06T00:32:56.533Z,8.03
2018-03-06T00:33:56.553Z,8.02
2018-03-06T00:34:56.556Z,7.94
2018-03-06T00:35:56.571Z,7.90
2018-03-06T00:36:56.593Z,7.93
2018-03-06T00:37:56.616Z,7.85
2018-03-06T00:38:56.634Z,7.82
2018-03-06T00:39:56.657Z,7.81
2018-03-06T00:40:56.670Z,7.78
2018-03-06T00:41:56.677Z,7.71
2018-03-06T00:42:56.703Z,7.79
2018-03-06T00:43:56.715Z,7.82
2018-03-06T00:44:56.733Z,7.81
2018-03-06T00:45:56.750Z,7.81
2018-03-06T00:46:56.830Z,7.71
2018-03-06T00:47:56.784Z,7.67
2018-03-06T00:48:56.808Z,7.60
2018-03-06T00:49:56.827Z,7.58
2018-03-06T00:50:56.836Z,7.47
2018-03-06T00:51:56.892Z,7.55
2018-03-06T00:52:56.872Z,7.53
2018-03-06T00:53:56.897Z,7.56
2018-03-06T00:54:56.908Z,7.66
2018-03-06T00:55:56.933Z,7.56
2018-03-06T00:56:56.944Z,7.53
2018-03-06T00:57:56.959Z,7.49
2018-03-06T00:58:56.977Z,7.53
2018-03-06T00:59:56.995Z,7.52
2018-03-06T01:00:57.012Z,7.53
2018-03-06T01:01:57.036Z,7.52
2018-03-06T01:02:57.053Z,7.42
2018-03-06T01:03:57.068Z,7.69
2018-03-06T01:04:57.101Z,7.58
2018-03-06T01:05:57.101Z,7.72
2018-03-06T01:06:57.120Z,7.87
2018-03-06T01:07:57.139Z,7.67
2018-03-06T01:08:57.155Z,7.56
2018-03-06T01:09:57.171Z,7.62
2018-03-06T01:10:57.187Z,7.66
2018-03-06T01:11:57.207Z,7.52
2018-03-06T01:12:57.222Z,7.45
2018-03-06T01:13:57.243Z,7.60
2018-03-06T01:14:57.260Z,7.69
2018-03-06T01:15:57.277Z,7.62
2018-03-06T01:16:57.291Z,7.71
2018-03-06T01:17:57.309Z,7.99
2018-03-06T01:18:57.326Z,8.00
2018-03-06T01:19:57.349Z,7.97
2018-03-06T01:20:57.361Z,7.78
2018-03-06T01:21:57.383Z,7.82
2018-03-06T01:22:57.397Z,7.87
2018-03-06T01:23:57.415Z,7.69
2018-03-06T01:24:57.432Z,7.74
2018-03-06T01:25:57.449Z,7.63
2018-03-06T01:26:57.473Z,7.55
2018-03-06T01:27:57.487Z,7.59
2018-03-06T01:28:57.501Z,7.66
2018-03-06T01:29:57.518Z,7.71
2018-03-06T01:30:57.537Z,7.45
2018-03-06T01:31:57.557Z,7.49
2018-03-06T01:32:57.574Z,7.85
2018-03-06T01:33:57.589Z,8.18
2018-03-06T01:34:57.607Z,8.20
2018-03-06T01:35:57.625Z,7.92
2018-03-06T01:36:57.640Z,7.81
2018-03-06T01:37:57.660Z,7.94
2018-03-06T01:38:57.691Z,8.03
2018-03-06T01:39:57.694Z,8.15
2018-03-06T01:40:57.714Z,8.39
2018-03-06T01:41:57.729Z,8.42
2018-03-06T01:42:57.753Z,8.14
2018-03-06T01:43:57.763Z,8.07
2018-03-06T01:44:57.778Z,7.96
2018-03-06T01:45:57.796Z,7.72
2018-03-06T01:46:57.822Z,7.49
2018-03-06T01:47:57.833Z,7.53
2018-03-06T01:48:57.848Z,7.45
2018-03-06T01:49:57.868Z,7.45
2018-03-06T01:50:57.889Z,7.42
2018-03-06T01:51:57.900Z,7.62
2018-03-06T01:52:57.921Z,7.62
2018-03-06T01:53:57.934Z,7.63
2018-03-06T01:54:57.950Z,7.63
2018-03-06T01:55:57.972Z,7.52
2018-03-06T01:56:58.000Z,7.41
2018-03-06T01:57:58.009Z,7.50
2018-03-06T01:58:58.025Z,7.35
2018-03-06T01:59:58.040Z,7.26
2018-03-06T02:00:58.054Z,7.20
2018-03-06T02:01:58.077Z,7.19
2018-03-06T02:02:58.092Z,7.24
2018-03-06T02:03:58.108Z,7.15
2018-03-06T02:04:58.126Z,6.98
2018-03-06T02:05:58.142Z,6.89
2018-03-06T02:06:58.160Z,7.15
2018-03-06T02:07:58.175Z,7.19
2018-03-06T02:08:58.197Z,7.12
2018-03-06T02:09:58.215Z,7.13
2018-03-06T02:10:58.230Z,7.16
2018-03-06T02:11:58.247Z,6.81
2018-03-06T02:12:58.264Z,6.69
2018-03-06T02:13:58.280Z,6.65
2018-03-06T02:14:58.299Z,7.09
2018-03-06T02:15:58.315Z,7.15
2018-03-06T02:16:58.338Z,6.89
2018-03-06T02:17:58.356Z,6.87
2018-03-06T02:18:58.366Z,6.76
2018-03-06T02:19:58.386Z,6.81
2018-03-06T02:20:58.404Z,6.95
2018-03-06T02:21:58.419Z,6.95
2018-03-06T02:22:58.436Z,6.91
2018-03-06T02:23:58.452Z,6.98
2018-03-06T02:24:58.469Z,7.26
2018-03-06T02:25:58.486Z,7.17
2018-03-06T02:26:58.503Z,7.27
2018-03-06T02:27:58.550Z,7.07
2018-03-06T02:28:58.538Z,7.07
2018-03-06T02:29:58.556Z,6.94
2018-03-06T02:30:58.572Z,6.68
2018-03-06T02:31:58.594Z,6.77
2018-03-06T02:32:58.607Z,6.81
2018-03-06T02:33:58.629Z,6.69
2018-03-06T02:34:58.640Z,6.66
2018-03-06T02:35:58.658Z,6.99
2018-03-06T02:36:58.681Z,6.95
2018-03-06T02:37:58.690Z,6.89
2018-03-06T02:38:58.709Z,6.94
2018-03-06T02:39:58.727Z,7.02
2018-03-06T02:40:58.745Z,7.08
2018-03-06T02:41:58.760Z,7.05
2018-03-06T02:42:58.783Z,6.95
2018-03-06T02:43:58.793Z,6.98
2018-03-06T02:44:58.806Z,7.07
2018-03-06T02:45:58.823Z,6.63
2018-03-06T02:46:58.845Z,6.36
2018-03-06T02:47:58.860Z,6.89
2018-03-06T02:48:58.878Z,6.98
2018-03-06T02:49:58.889Z,6.66
2018-03-06T02:50:58.912Z,7.08
2018-03-06T02:51:58.938Z,7.45
2018-03-06T02:52:58.945Z,7.20
2018-03-06T02:53:58.959Z,7.17
2018-03-06T02:54:58.976Z,6.91
2018-03-06T02:55:58.992Z,6.97
2018-03-06T02:56:59.011Z,6.72
2018-03-06T02:57:59.026Z,6.94
2018-03-06T02:58:59.043Z,6.77
2018-03-06T02:59:59.066Z,6.71
2018-03-06T03:00:59.086Z,6.95
2018-03-06T03:01:59.097Z,6.90
2018-03-06T03:02:59.112Z,7.15
2018-03-06T03:03:59.126Z,7.04
2018-03-06T03:04:59.145Z,6.59
2018-03-06T03:05:59.160Z,6.46
2018-03-06T03:06:59.177Z,6.35
2018-03-06T03:07:59.195Z,6.59
2018-03-06T03:08:59.211Z,6.43
2018-03-06T03:09:59.227Z,6.58
2018-03-06T03:10:59.242Z,6.81
2018-03-06T03:11:59.273Z,7.05
2018-03-06T03:12:59.276Z,7.05
2018-03-06T03:13:59.297Z,6.69
2018-03-06T03:14:59.310Z,6.79
2018-03-06T03:15:59.328Z,6.90
2018-03-06T03:16:59.345Z,6.80
2018-03-06T03:17:59.358Z,6.63
2018-03-06T03:18:59.377Z,6.56
2018-03-06T03:19:59.391Z,6.99
2018-03-06T03:20:59.412Z,6.94
2018-03-06T03:21:59.431Z,6.47
2018-03-06T03:22:59.444Z,6.89
2018-03-06T03:23:59.463Z,7.07
2018-03-06T03:24:59.473Z,6.63
2018-03-06T03:25:59.492Z,6.90
2018-03-06T03:26:59.507Z,6.69
2018-03-06T03:27:59.529Z,6.47
2018-03-06T03:28:59.543Z,6.28
2018-03-06T03:29:59.564Z,6.10
2018-03-06T03:30:59.586Z,6.10
2018-03-06T03:31:59.594Z,6.13
2018-03-06T03:32:59.611Z,6.19
2018-03-06T03:33:59.632Z,6.11
2018-03-06T03:34:59.644Z,6.30
2018-03-06T03:35:59.659Z,6.22
2018-03-06T03:36:59.674Z,6.25
2018-03-06T03:37:59.698Z,5.88
2018-03-06T03:38:59.706Z,5.93
2018-03-06T03:39:59.727Z,5.89
2018-03-06T03:40:59.738Z,5.92
2018-03-06T03:41:59.756Z,6.11
2018-03-06T03:42:59.771Z,6.10
2018-03-06T03:43:59.793Z,6.01
2018-03-06T03:44:59.810Z,5.95
2018-03-06T03:45:59.828Z,5.93
2018-03-06T03:46:59.841Z,5.92
2018-03-06T03:47:59.860Z,5.98
2018-03-06T03:48:59.873Z,5.95
2018-03-06T03:49:59.894Z,5.68
2018-03-06T03:50:59.910Z,5.55
2018-03-06T03:51:59.932Z,5.71
2018-03-06T03:52:59.939Z,5.88
2018-03-06T03:53:59.961Z,6.01
2018-03-06T03:54:59.974Z,5.91
2018-03-06T03:55:59.994Z,5.82
2018-03-06T03:57:00.009Z,5.70
2018-03-06T03:58:00.025Z,5.81
2018-03-06T03:59:00.039Z,5.85
2018-03-06T04:00:00.057Z,5.85
2018-03-06T04:01:00.073Z,5.88
2018-03-06T04:02:00.088Z,5.95
2018-03-06T04:03:00.106Z,5.74
2018-03-06T04:04:00.122Z,5.67
2018-03-06T04:05:00.138Z,5.59
2018-03-06T04:06:00.176Z,5.63
2018-03-06T04:07:00.169Z,5.64
2018-03-06T04:08:00.188Z,5.57
2018-03-06T04:09:00.198Z,5.55
2018-03-06T04:10:00.221Z,5.55
2018-03-06T04:11:00.235Z,5.66
2018-03-06T04:12:00.262Z,5.98
2018-03-06T04:13:00.266Z,5.83
2018-03-06T04:14:00.298Z,5.96
2018-03-06T04:15:00.302Z,6.32
2018-03-06T04:16:00.317Z,6.48
2018-03-06T04:17:00.335Z,6.01
2018-03-06T04:18:00.349Z,6.06
2018-03-06T04:19:00.367Z,5.96
2018-03-06T04:20:00.383Z,5.85
2018-03-06T04:21:00.404Z,6.13
2018-03-06T04:22:00.416Z,6.00
2018-03-06T04:23:00.429Z,5.71
2018-03-06T04:24:00.448Z,5.67
2018-03-06T04:25:00.470Z,5.56
2018-03-06T04:26:00.478Z,5.64
2018-03-06T04:27:00.496Z,5.55
2018-03-06T04:28:00.511Z,5.43
2018-03-06T04:29:00.557Z,5.86
2018-03-06T04:30:00.544Z,5.68
2018-03-06T04:31:00.562Z,5.68
2018-03-06T04:32:00.577Z,5.59
2018-03-06T04:33:00.589Z,5.32
2018-03-06T04:34:00.607Z,5.43
2018-03-06T04:35:00.630Z,5.37
2018-03-06T04:36:00.645Z,5.25
2018-03-06T04:37:00.656Z,5.25
2018-03-06T04:38:00.670Z,5.40
2018-03-06T04:39:00.687Z,5.56
2018-03-06T04:40:00.706Z,5.56
2018-03-06T04:41:00.716Z,5.63
2018-03-06T04:42:00.738Z,5.64
2018-03-06T04:43:00.751Z,5.74
2018-03-06T04:44:00.767Z,6.29
2018-03-06T04:45:00.789Z,6.69
2018-03-06T04:46:00.798Z,6.80
2018-03-06T04:47:00.817Z,6.51
2018-03-06T04:48:00.830Z,6.04
2018-03-06T04:49:00.858Z,5.89
2018-03-06T04:50:00.864Z,5.60
2018-03-06T04:51:00.879Z,6.33
2018-03-06T04:52:00.894Z,6.54
2018-03-06T04:53:00.912Z,6.69
2018-03-06T04:54:00.928Z,6.22
2018-03-06T04:55:00.966Z,6.10
2018-03-06T04:56:00.957Z,6.07
2018-03-06T04:57:00.972Z,6.16
2018-03-06T04:58:00.987Z,6.46
2018-03-06T04:59:01.011Z,6.41
2018-03-06T05:00:01.022Z,6.28
2018-03-06T05:01:01.042Z,6.11
2018-03-06T05:02:01.056Z,6.38
2018-03-06T05:03:01.070Z,6.35
2018-03-06T05:04:01.085Z,6.32
2018-03-06T05:05:01.104Z,6.10
2018-03-06T05:06:01.134Z,5.91
2018-03-06T05:07:01.138Z,5.73
2018-03-06T05:08:01.167Z,5.78
2018-03-06T05:09:01.168Z,6.16
2018-03-06T05:10:01.182Z,6.54
2018-03-06T05:11:01.203Z,6.54
2018-03-06T05:12:01.214Z,6.71
2018-03-06T05:13:01.236Z,6.43
2018-03-06T05:14:01.245Z,6.26
2018-03-06T05:15:01.261Z,6.40
2018-03-06T05:16:01.283Z,6.51
2018-03-06T05:17:01.293Z,6.59
2018-03-06T05:18:01.311Z,6.58
2018-03-06T05:19:01.334Z,6.63
2018-03-06T05:20:01.341Z,6.81
2018-03-06T05:21:01.366Z,6.79
2018-03-06T05:22:01.374Z,6.66
2018-03-06T05:23:01.400Z,6.63
2018-03-06T05:24:01.414Z,6.53
2018-03-06T05:25:01.422Z,6.40
2018-03-06T05:26:01.432Z,6.62
2018-03-06T05:27:01.480Z,6.43
2018-03-06T05:28:01.472Z,6.54
2018-03-06T05:29:01.481Z,6.53
2018-03-06T05:30:01.504Z,6.35
2018-03-06T05:31:01.525Z,6.21
2018-03-06T05:32:01.532Z,6.38
2018-03-06T05:33:01.580Z,6.40
2018-03-06T05:34:01.569Z,6.41
2018-03-06T05:35:01.578Z,6.46
2018-03-06T05:36:01.599Z,6.38
2018-03-06T05:37:01.612Z,6.33
2018-03-06T05:38:01.628Z,6.35
2018-03-06T05:39:01.679Z,6.36
2018-03-06T05:40:01.663Z,6.36
2018-03-06T05:41:01.674Z,6.21
2018-03-06T05:42:01.698Z,5.64
2018-03-06T05:43:01.706Z,5.60
2018-03-06T05:44:01.724Z,5.49
2018-03-06T05:45:01.741Z,5.71
2018-03-06T05:46:01.758Z,5.85
2018-03-06T05:47:01.780Z,5.71
2018-03-06T05:48:01.789Z,5.67
2018-03-06T05:49:01.801Z,5.57
2018-03-06T05:50:01.828Z,5.07
2018-03-06T05:51:01.836Z,4.92
2018-03-06T05:52:01.849Z,4.98
2018-03-06T05:53:01.875Z,5.01
2018-03-06T05:54:01.883Z,4.98
2018-03-06T05:55:01.897Z,4.92
2018-03-06T05:56:01.916Z,5.23
2018-03-06T05:57:01.931Z,5.32
2018-03-06T05:58:01.952Z,5.35
2018-03-06T05:59:01.962Z,5.63
2018-03-06T06:00:01.977Z,5.59
2018-03-06T06:01:01.992Z,5.37
2018-03-06T06:02:02.017Z,5.48
2018-03-06T06:03:02.022Z,5.16
2018-03-06T06:04:02.042Z,4.96
2018-03-06T06:05:02.070Z,5.07
2018-03-06T06:06:02.073Z,5.13
2018-03-06T06:07:02.089Z,5.10
2018-03-06T06:08:02.102Z,4.69
2018-03-06T06:09:02.125Z,4.96
2018-03-06T06:10:02.133Z,4.91
2018-03-06T06:11:02.149Z,4.86
2018-03-06T06:12:02.164Z,4.73
2018-03-06T06:13:02.189Z,4.59
2018-03-06T06:14:02.196Z,4.77
2018-03-06T06:15:02.211Z,4.79
2018-03-06T06:16:02.232Z,4.92
2018-03-06T06:17:02.251Z,5.01
2018-03-06T06:18:02.262Z,4.96
2018-03-06T06:19:02.278Z,5.01
2018-03-06T06:20:02.297Z,5.02
2018-03-06T06:21:02.314Z,4.94
2018-03-06T06:22:02.324Z,4.83
2018-03-06T06:23:02.341Z,4.70
2018-03-06T06:24:02.358Z,4.54
2018-03-06T06:25:02.372Z,4.72
2018-03-06T06:26:02.385Z,4.92
2018-03-06T06:27:02.415Z,5.17
2018-03-06T06:28:02.414Z,5.53
2018-03-06T06:29:02.434Z,5.48
2018-03-06T06:30:02.458Z,5.35
2018-03-06T06:31:02.469Z,5.45
2018-03-06T06:32:02.482Z,5.48
2018-03-06T06:33:02.497Z,5.56
2018-03-06T06:34:02.513Z,5.67
2018-03-06T06:35:02.526Z,5.81
2018-03-06T06:36:02.544Z,5.30
2018-03-06T06:37:02.556Z,4.86
2018-03-06T06:38:02.570Z,4.88
2018-03-06T06:39:02.588Z,4.80
2018-03-06T06:40:02.607Z,4.95
2018-03-06T06:41:02.619Z,4.94
2018-03-06T06:42:02.636Z,5.28
2018-03-06T06:43:02.654Z,5.66
2018-03-06T06:44:02.665Z,5.70
2018-03-06T06:45:02.684Z,5.63
2018-03-06T06:46:02.700Z,5.66
2018-03-06T06:47:02.709Z,5.78
2018-03-06T06:48:02.726Z,5.73
2018-03-06T06:49:02.743Z,5.68
2018-03-06T06:50:02.759Z,5.59
2018-03-06T06:51:02.776Z,5.68
2018-03-06T06:52:02.805Z,6.00
2018-03-06T06:53:02.806Z,5.17
2018-03-06T06:54:02.821Z,4.80
2018-03-06T06:55:02.848Z,5.19
2018-03-06T06:56:02.851Z,5.43
2018-03-06T06:57:02.867Z,5.30
2018-03-06T06:58:02.884Z,5.48
2018-03-06T06:59:02.899Z,4.98
2018-03-06T07:00:02.927Z,5.38
2018-03-06T07:01:02.933Z,5.50
2018-03-06T07:02:02.945Z,5.32
2018-03-06T07:03:02.963Z,5.28
2018-03-06T07:04:02.977Z,5.10
2018-03-06T07:05:02.993Z,5.27
2018-03-06T07:06:03.007Z,5.28
2018-03-06T07:07:03.023Z,5.32
2018-03-06T07:08:03.037Z,5.37
2018-03-06T07:09:03.053Z,5.12
2018-03-06T07:10:03.080Z,4.96
2018-03-06T07:11:03.087Z,5.09
2018-03-06T07:12:03.100Z,4.98
2018-03-06T07:13:03.116Z,4.94
2018-03-06T07:14:03.133Z,4.96
2018-03-06T07:15:03.147Z,4.98
2018-03-06T07:16:03.165Z,4.91
2018-03-06T07:17:03.180Z,4.98
2018-03-06T07:18:03.201Z,4.96
2018-03-06T07:19:03.207Z,4.98
2018-03-06T07:20:03.226Z,4.94
2018-03-06T07:21:03.240Z,4.95
2018-03-06T07:22:03.259Z,5.07
2018-03-06T07:23:03.268Z,4.99
2018-03-06T07:24:03.287Z,5.12
2018-03-06T07:25:03.304Z,5.14
2018-03-06T07:26:03.319Z,5.10
2018-03-06T07:27:03.338Z,5.12
2018-03-06T07:28:03.351Z,5.17
2018-03-06T07:29:03.370Z,5.10
2018-03-06T07:30:03.386Z,5.27
2018-03-06T07:31:03.398Z,5.38
2018-03-06T07:32:03.416Z,5.16
2018-03-06T07:33:03.431Z,5.46
2018-03-06T07:34:03.446Z,5.81
2018-03-06T07:35:03.461Z,5.85
2018-03-06T07:36:03.474Z,5.68
2018-03-06T07:37:03.494Z,5.67
2018-03-06T07:38:03.570Z,5.82
2018-03-06T07:39:03.549Z,5.95
2018-03-06T07:40:03.542Z,5.81
2018-03-06T07:41:03.559Z,5.75
2018-03-06T07:42:03.568Z,5.60
2018-03-06T07:43:03.616Z,5.67
2018-03-06T07:44:03.611Z,5.56
2018-03-06T07:45:03.635Z,5.60
2018-03-06T07:46:03.636Z,5.93
2018-03-06T07:47:03.653Z,5.98
2018-03-06T07:48:03.666Z,5.95
2018-03-06T07:49:03.683Z,5.88
2018-03-06T07:50:03.700Z,5.86
2018-03-06T07:51:03.718Z,5.95
2018-03-06T07:52:03.732Z,6.09
2018-03-06T07:53:03.749Z,6.21
2018-03-06T07:54:03.765Z,5.98
2018-03-06T07:55:03.778Z,6.10
2018-03-06T07:56:03.797Z,6.16
2018-03-06T07:57:03.813Z,6.36
2018-03-06T07:58:03.825Z,6.30
2018-03-06T07:59:03.873Z,6.50
2018-03-06T08:00:03.858Z,6.36
2018-03-06T08:01:03.881Z,6.30
2018-03-06T08:02:03.894Z,6.36
2018-03-06T08:03:03.910Z,6.35
2018-03-06T08:04:03.926Z,6.13
2018-03-06T08:05:03.943Z,6.10
2018-03-06T08:06:03.962Z,6.16
2018-03-06T08:07:03.974Z,6.11
2018-03-06T08:08:03.993Z,6.29
2018-03-06T08:09:04.011Z,6.36
2018-03-06T08:10:04.029Z,6.56
2018-03-06T08:11:04.041Z,6.53
2018-03-06T08:12:04.057Z,6.59
2018-03-06T08:13:04.069Z,6.69
2018-03-06T08:14:04.089Z,6.65
2018-03-06T08:15:04.104Z,6.50
2018-03-06T08:16:04.123Z,6.58
2018-03-06T08:17:04.148Z,6.33
2018-03-06T08:18:04.154Z,6.73
2018-03-06T08:19:04.169Z,6.63
2018-03-06T08:20:04.185Z,6.59
2018-03-06T08:21:04.204Z,6.79
2018-03-06T08:22:04.221Z,7.15
2018-03-06T08:23:04.241Z,7.01
2018-03-06T08:24:04.258Z,6.99
2018-03-06T08:25:04.272Z,6.90
2018-03-06T08:26:04.284Z,6.97
2018-03-06T08:27:04.302Z,6.97
2018-03-06T08:28:04.322Z,7.04
2018-03-06T08:29:04.337Z,7.04
2018-03-06T08:30:04.350Z,7.01
2018-03-06T08:31:04.372Z,6.89
2018-03-06T08:32:04.388Z,6.81
2018-03-06T08:33:04.406Z,7.01
2018-03-06T08:34:04.420Z,7.01
2018-03-06T08:35:04.437Z,7.02
2018-03-06T08:36:04.451Z,7.05
2018-03-06T08:37:04.469Z,7.15
2018-03-06T08:38:04.485Z,6.98
2018-03-06T08:39:04.510Z,7.19
2018-03-06T08:40:04.518Z,7.53
2018-03-06T08:41:04.537Z,7.50
2018-03-06T08:42:04.556Z,7.37
2018-03-06T08:43:04.570Z,7.37
2018-03-06T08:44:04.586Z,7.62
2018-03-06T08:45:04.601Z,7.84
2018-03-06T08:46:04.624Z,8.00
2018-03-06T08:47:04.639Z,7.96
2018-03-06T08:48:04.685Z,7.82
2018-03-06T08:49:04.677Z,8.00
2018-03-06T08:50:04.693Z,8.07
2018-03-06T08:51:04.708Z,8.10
2018-03-06T08:52:04.727Z,7.97
2018-03-06T08:53:04.739Z,7.94
2018-03-06T08:54:04.761Z,7.90
2018-03-06T08:55:04.773Z,7.99
2018-03-06T08:56:04.792Z,8.10
2018-03-06T08:57:04.813Z,8.18
2018-03-06T08:58:04.829Z,8.39
2018-03-06T08:59:04.841Z,8.42
2018-03-06T09:00:04.859Z,8.44
2018-03-06T09:01:04.875Z,8.40
2018-03-06T09:02:04.897Z,8.11
2018-03-06T09:03:04.915Z,8.12
2018-03-06T09:04:04.932Z,7.94
2018-03-06T09:05:04.946Z,7.92
2018-03-06T09:06:04.964Z,7.47
2018-03-06T09:07:04.992Z,7.53
2018-03-06T09:08:04.999Z,7.53
2018-03-06T09:09:05.021Z,7.72
2018-03-06T09:10:05.032Z,7.85
2018-03-06T09:11:05.066Z,7.78
2018-03-06T09:12:05.069Z,7.75
2018-03-06T09:13:05.084Z,7.82
2018-03-06T09:14:05.138Z,8.02
2018-03-06T09:15:05.119Z,8.07
2018-03-06T09:16:05.136Z,8.44
2018-03-06T09:17:05.171Z,8.03
2018-03-06T09:18:05.174Z,8.30
2018-03-06T09:19:05.197Z,8.54
2018-03-06T09:20:05.215Z,8.58
2018-03-06T09:21:05.224Z,8.17
2018-03-06T09:22:05.244Z,8.21
2018-03-06T09:23:05.261Z,8.44
2018-03-06T09:24:05.281Z,8.44
2018-03-06T09:25:05.298Z,8.55
2018-03-06T09:26:05.322Z,8.72
2018-03-06T09:27:05.332Z,8.75
2018-03-06T09:28:05.354Z,8.83
2018-03-06T09:29:05.371Z,8.73
2018-03-06T09:30:05.384Z,8.96
2018-03-06T09:31:05.405Z,8.86
2018-03-06T09:32:05.427Z,8.93
2018-03-06T09:33:05.438Z,9.01
2018-03-06T09:34:05.455Z,9.02
2018-03-06T09:35:05.474Z,9.23
2018-03-06T09:36:05.496Z,9.20
2018-03-06T09:37:05.508Z,9.27
2018-03-06T09:38:05.528Z,8.97
2018-03-06T09:39:05.545Z,8.88
2018-03-06T09:40:05.567Z,8.68
2018-03-06T09:41:05.584Z,8.86
2018-03-06T09:42:05.600Z,8.65
2018-03-06T09:43:05.618Z,8.58
2018-03-06T09:44:05.635Z,8.62
2018-03-06T09:45:05.659Z,8.60
2018-03-06T09:46:05.679Z,8.60
2018-03-06T09:47:05.748Z,8.48
2018-03-06T09:48:05.706Z,8.65
2018-03-06T09:49:05.725Z,8.60
2018-03-06T09:50:05.754Z,8.78
2018-03-06T09:51:05.759Z,8.87
2018-03-06T09:52:05.778Z,8.81
2018-03-06T09:53:05.799Z,8.73
2018-03-06T09:54:05.818Z,8.60
2018-03-06T09:55:05.833Z,8.60
2018-03-06T09:56:05.849Z,8.68
2018-03-06T09:57:05.871Z,8.68
2018-03-06T09:58:05.891Z,8.62
2018-03-06T09:59:05.914Z,8.63
2018-03-06T10:00:05.922Z,8.83
2018-03-06T10:01:05.940Z,9.09
2018-03-06T10:02:05.958Z,9.39
2018-03-06T10:03:06.006Z,9.64
2018-03-06T10:04:06.000Z,9.49
2018-03-06T10:05:06.018Z,9.66
2018-03-06T10:06:06.041Z,9.75
2018-03-06T10:07:06.057Z,9.81
2018-03-06T10:08:06.076Z,9.58
2018-03-06T10:09:06.094Z,9.61
2018-03-06T10:10:06.107Z,9.81
2018-03-06T10:11:06.134Z,9.64
2018-03-06T10:12:06.152Z,9.71
2018-03-06T10:13:06.165Z,9.83
2018-03-06T10:14:06.178Z,9.75
2018-03-06T10:15:06.208Z,9.46
2018-03-06T10:16:06.263Z,9.63
2018-03-06T10:17:06.240Z,9.75
2018-03-06T10:18:06.266Z,9.71
2018-03-06T10:19:06.273Z,9.68
2018-03-06T10:20:06.298Z,9.71
2018-03-06T10:21:06.312Z,9.63
2018-03-06T10:22:06.332Z,9.63
2018-03-06T10:23:06.352Z,9.68
2018-03-06T10:24:06.369Z,9.93
2018-03-06T10:25:06.394Z,10.15
2018-03-06T10:26:06.419Z,10.26
2018-03-06T10:27:06.425Z,9.75
2018-03-06T10:28:06.473Z,9.61
2018-03-06T10:29:06.467Z,9.63
2018-03-06T10:30:06.480Z,9.86
2018-03-06T10:31:06.504Z,9.76
2018-03-06T10:32:06.527Z,9.67
2018-03-06T10:33:06.543Z,9.61
2018-03-06T10:34:06.558Z,9.60
2018-03-06T10:35:06.574Z,9.83
2018-03-06T10:36:06.594Z,10.06
2018-03-06T10:37:06.617Z,10.24
2018-03-06T10:38:06.633Z,10.40
2018-03-06T10:39:06.658Z,10.43
2018-03-06T10:40:06.683Z,10.42
2018-03-06T10:41:06.691Z,10.17
2018-03-06T10:42:06.712Z,9.78
2018-03-06T10:43:06.729Z,9.57
2018-03-06T10:44:06.750Z,9.61
2018-03-06T10:45:06.773Z,9.57
2018-03-06T10:46:06.789Z,9.68
2018-03-06T10:47:06.852Z,9.79
2018-03-06T10:48:06.833Z,10.06
2018-03-06T10:49:06.846Z,10.22
2018-03-06T10:50:06.864Z,10.01
2018-03-06T10:51:06.885Z,10.28
2018-03-06T10:52:06.901Z,10.10
2018-03-06T10:53:06.922Z,9.93
2018-03-06T10:54:06.939Z,9.83
2018-03-06T10:55:06.956Z,9.67
2018-03-06T10:56:06.975Z,9.71
2018-03-06T10:57:07.001Z,9.70
2018-03-06T10:58:07.024Z,9.68
2018-03-06T10:59:07.035Z,9.68
2018-03-06T11:00:07.052Z,9.76
2018-03-06T11:01:07.078Z,10.17
2018-03-06T11:02:07.093Z,10.09
2018-03-06T11:03:07.110Z,10.06
2018-03-06T11:04:07.133Z,9.82
2018-03-06T11:05:07.150Z,9.78
2018-03-06T11:06:07.170Z,9.93
2018-03-06T11:07:07.190Z,10.03
2018-03-06T11:08:07.256Z,9.96
2018-03-06T11:09:07.237Z,10.34
2018-03-06T11:10:07.252Z,10.76
2018-03-06T11:11:07.274Z,10.99
2018-03-06T11:12:07.286Z,11.09
2018-03-06T11:13:07.307Z,11.09
2018-03-06T11:14:07.330Z,11.28
2018-03-06T11:15:07.363Z,11.25
2018-03-06T11:16:07.365Z,11.11
2018-03-06T11:17:07.388Z,10.28
2018-03-06T11:18:07.405Z,10.18
2018-03-06T11:19:07.423Z,10.09
2018-03-06T11:20:07.443Z,10.25
2018-03-06T11:21:07.462Z,10.39
2018-03-06T11:22:07.483Z,10.25
2018-03-06T11:23:07.502Z,10.14
2018-03-06T11:24:07.526Z,10.39
2018-03-06T11:25:07.541Z,10.60
2018-03-06T11:26:07.559Z,10.80
2018-03-06T11:27:07.580Z,10.65
2018-03-06T11:28:07.613Z,10.24
2018-03-06T11:29:07.618Z,10.36
2018-03-06T11:30:07.640Z,10.62
2018-03-06T11:31:07.658Z,11.01
2018-03-06T11:32:07.678Z,11.13
2018-03-06T11:33:07.699Z,11.11
2018-03-06T11:34:07.738Z,10.43
2018-03-06T11:35:07.736Z,10.34
2018-03-06T11:36:07.756Z,10.39
2018-03-06T11:37:07.782Z,10.80
2018-03-06T11:38:07.799Z,10.83
2018-03-06T11:39:07.815Z,10.71
2018-03-06T11:40:07.836Z,11.09
2018-03-06T11:41:07.852Z,11.24
2018-03-06T11:42:07.876Z,11.35
2018-03-06T11:43:07.903Z,11.38
2018-03-06T11:44:07.913Z,11.36
2018-03-06T11:45:07.938Z,11.31
2018-03-06T11:46:07.953Z,11.28
2018-03-06T11:47:07.980Z,11.27
2018-03-06T11:48:07.992Z,11.25
2018-03-06T11:49:08.038Z,11.38
2018-03-06T11:50:08.033Z,11.03
2018-03-06T11:51:08.054Z,11.20
2018-03-06T11:52:08.074Z,11.25
2018-03-06T11:53:08.097Z,11.32
2018-03-06T11:54:08.109Z,11.09
2018-03-06T11:55:08.138Z,10.83
2018-03-06T11:56:08.148Z,11.10
2018-03-06T11:57:08.171Z,10.84
2018-03-06T11:58:08.191Z,11.01
2018-03-06T11:59:08.213Z,11.29
2018-03-06T12:00:08.232Z,11.27
2018-03-06T12:01:08.254Z,11.38
2018-03-06T12:02:08.298Z,11.34
2018-03-06T12:03:08.298Z,11.29
2018-03-06T12:04:08.310Z,11.46
2018-03-06T12:05:08.329Z,11.32
2018-03-06T12:06:08.360Z,11.46
2018-03-06T12:07:08.425Z,11.47
2018-03-06T12:08:08.387Z,11.77
2018-03-06T12:09:08.602Z,12.09
2018-03-06T12:10:08.489Z,11.74
2018-03-06T12:11:08.467Z,12.09
2018-03-06T12:12:08.472Z,12.04
2018-03-06T12:13:08.491Z,12.13
2018-03-06T12:14:08.523Z,11.62
2018-03-06T12:15:08.530Z,11.29
2018-03-06T12:16:08.549Z,11.27
2018-03-06T12:17:08.576Z,11.72
2018-03-06T12:18:08.601Z,11.75
2018-03-06T12:19:08.614Z,12.01
2018-03-06T12:20:08.637Z,11.86
2018-03-06T12:21:08.655Z,12.09
2018-03-06T12:22:08.681Z,12.20
2018-03-06T12:23:08.696Z,12.38
2018-03-06T12:24:08.712Z,12.20
2018-03-06T12:25:08.733Z,12.13
2018-03-06T12:26:08.755Z,12.23
2018-03-06T12:27:08.781Z,12.31
2018-03-06T12:28:08.796Z,12.38
2018-03-06T12:29:08.821Z,12.48
2018-03-06T12:30:08.868Z,12.15
2018-03-06T12:31:08.856Z,11.80
2018-03-06T12:32:08.880Z,12.27
2018-03-06T12:33:08.904Z,12.12
2018-03-06T12:34:08.922Z,12.01
2018-03-06T12:35:08.939Z,12.13
2018-03-06T12:36:09.026Z,12.11
2018-03-06T12:37:08.980Z,11.78
2018-03-06T12:38:09.000Z,12.11
2018-03-06T12:39:09.025Z,12.11
2018-03-06T12:40:09.052Z,12.15
2018-03-06T12:41:09.064Z,12.02
2018-03-06T12:42:09.083Z,12.29
2018-03-06T12:43:09.106Z,12.13
2018-03-06T12:44:09.126Z,12.27
2018-03-06T12:45:09.146Z,11.93
2018-03-06T12:46:09.176Z,12.30
2018-03-06T12:47:09.194Z,12.44
2018-03-06T12:48:09.216Z,12.77
2018-03-06T12:49:09.230Z,12.89
2018-03-06T12:50:09.252Z,13.04
2018-03-06T12:51:09.274Z,12.99
2018-03-06T12:52:09.296Z,12.81
2018-03-06T12:53:09.315Z,12.49
2018-03-06T12:54:09.344Z,12.60
2018-03-06T12:55:09.371Z,12.78
2018-03-06T12:56:09.382Z,13.09
2018-03-06T12:57:09.401Z,13.54
2018-03-06T12:58:09.429Z,13.24
2018-03-06T12:59:09.448Z,13.58
2018-03-06T13:00:09.466Z,14.04
2018-03-06T13:01:09.493Z,14.61
2018-03-06T13:02:09.514Z,14.44
2018-03-06T13:03:09.534Z,14.44
2018-03-06T13:04:09.561Z,13.99
2018-03-06T13:05:09.579Z,14.25
2018-03-06T13:06:09.604Z,13.99
2018-03-06T13:07:09.689Z,14.20
2018-03-06T13:08:09.651Z,13.94
2018-03-06T13:09:09.671Z,14.16
2018-03-06T13:10:09.696Z,13.69
2018-03-06T13:11:09.717Z,13.83
2018-03-06T13:12:09.747Z,14.16
2018-03-06T13:13:09.766Z,14.21
2018-03-06T13:14:09.784Z,15.08